sensor_id;sensor_type;location;lat;lon;timestamp;P1;durP1;ratioP1;P2;durP2;ratioP2
13785;SDS011;47474;48.824;9.384;2024-03-22T00:01:45;5.47;;;4.97;;
13785;SDS011;47474;48.824;9.384;2024-03-22T00:04:13;6.27;;;5.23;;
13785;SDS011;47474;48.824;9.384;2024-03-22T00:06:40;6.57;;;4.77;;
13785;SDS011;47474;48.824;9.384;2024-03-22T00:09:06;6.13;;;5.53;;
13785;SDS011;47474;48.824;9.384;2024-03-22T00:11:33;5.87;;;5.27;;
13785;SDS011;47474;48.824;9.384;2024-03-22T00:13:58;5.87;;;5.33;;
13785;SDS011;47474;48.824;9.384;2024-03-22T00:16:25;6.60;;;5.27;;
13785;SDS011;47474;48.824;9.384;2024-03-22T00:18:50;6.17;;;5.57;;
13785;SDS011;47474;48.824;9.384;2024-03-22T00:21:18;5.77;;;4.93;;
13785;SDS011;47474;48.824;9.384;2024-03-22T00:23:44;8.27;;;5.13;;
13785;SDS011;47474;48.824;9.384;2024-03-22T00:26:11;5.23;;;4.70;;
13785;SDS011;47474;48.824;9.384;2024-03-22T00:28:36;5.63;;;4.53;;
13785;SDS011;47474;48.824;9.384;2024-03-22T00:31:04;4.50;;;4.10;;
13785;SDS011;47474;48.824;9.384;2024-03-22T00:33:30;4.70;;;4.27;;
13785;SDS011;47474;48.824;9.384;2024-03-22T00:35:56;4.80;;;4.30;;
13785;SDS011;47474;48.824;9.384;2024-03-22T00:38:24;5.20;;;4.70;;
13785;SDS011;47474;48.824;9.384;2024-03-22T00:40:49;5.27;;;4.50;;
13785;SDS011;47474;48.824;9.384;2024-03-22T00:43:16;6.77;;;4.90;;
13785;SDS011;47474;48.824;9.384;2024-03-22T00:45:41;5.77;;;5.10;;
13785;SDS011;47474;48.824;9.384;2024-03-22T00:48:08;6.67;;;4.90;;
13785;SDS011;47474;48.824;9.384;2024-03-22T00:50:34;5.33;;;4.57;;
13785;SDS011;47474;48.824;9.384;2024-03-22T00:53:00;7.83;;;4.87;;
13785;SDS011;47474;48.824;9.384;2024-03-22T00:55:29;5.50;;;4.90;;
13785;SDS011;47474;48.824;9.384;2024-03-22T00:57:55;5.93;;;4.97;;
13785;SDS011;47474;48.824;9.384;2024-03-22T01:00:21;9.37;;;5.70;;
13785;SDS011;47474;48.824;9.384;2024-03-22T01:02:48;7.33;;;5.33;;
13785;SDS011;47474;48.824;9.384;2024-03-22T01:05:15;6.40;;;4.93;;
13785;SDS011;47474;48.824;9.384;2024-03-22T01:07:42;5.57;;;4.63;;
13785;SDS011;47474;48.824;9.384;2024-03-22T01:10:07;7.07;;;4.70;;
13785;SDS011;47474;48.824;9.384;2024-03-22T01:12:35;5.73;;;5.13;;
13785;SDS011;47474;48.824;9.384;2024-03-22T01:15:01;6.47;;;5.13;;
13785;SDS011;47474;48.824;9.384;2024-03-22T01:17:28;5.77;;;5.13;;
13785;SDS011;47474;48.824;9.384;2024-03-22T01:19:53;5.40;;;4.80;;
13785;SDS011;47474;48.824;9.384;2024-03-22T01:22:20;5.63;;;4.77;;
13785;SDS011;47474;48.824;9.384;2024-03-22T01:24:45;5.20;;;4.70;;
13785;SDS011;47474;48.824;9.384;2024-03-22T01:27:12;5.40;;;4.70;;
13785;SDS011;47474;48.824;9.384;2024-03-22T01:29:38;5.13;;;4.63;;
13785;SDS011;47474;48.824;9.384;2024-03-22T01:32:05;5.87;;;4.47;;
13785;SDS011;47474;48.824;9.384;2024-03-22T01:34:31;6.30;;;5.07;;
13785;SDS011;47474;48.824;9.384;2024-03-22T01:36:59;6.43;;;5.03;;
13785;SDS011;47474;48.824;9.384;2024-03-22T01:39:25;5.83;;;5.23;;
13785;SDS011;47474;48.824;9.384;2024-03-22T01:41:51;7.60;;;5.27;;
13785;SDS011;47474;48.824;9.384;2024-03-22T01:44:17;6.13;;;4.97;;
13785;SDS011;47474;48.824;9.384;2024-03-22T01:46:45;5.60;;;4.63;;
13785;SDS011;47474;48.824;9.384;2024-03-22T01:49:12;6.70;;;4.93;;
13785;SDS011;47474;48.824;9.384;2024-03-22T01:51:39;5.37;;;4.80;;
13785;SDS011;47474;48.824;9.384;2024-03-22T01:54:05;5.60;;;4.83;;
13785;SDS011;47474;48.824;9.384;2024-03-22T01:56:34;5.80;;;4.77;;
13785;SDS011;47474;48.824;9.384;2024-03-22T01:59:02;8.27;;;4.83;;
13785;SDS011;47474;48.824;9.384;2024-03-22T02:01:28;5.80;;;4.80;;
13785;SDS011;47474;48.824;9.384;2024-03-22T02:03:55;5.63;;;4.80;;
13785;SDS011;47474;48.824;9.384;2024-03-22T02:06:21;6.20;;;5.40;;
13785;SDS011;47474;48.824;9.384;2024-03-22T02:08:47;7.17;;;5.93;;
13785;SDS011;47474;48.824;9.384;2024-03-22T02:11:13;9.97;;;5.50;;
13785;SDS011;47474;48.824;9.384;2024-03-22T02:13:39;5.30;;;4.80;;
13785;SDS011;47474;48.824;9.384;2024-03-22T02:16:05;7.67;;;4.97;;
13785;SDS011;47474;48.824;9.384;2024-03-22T02:18:31;6.23;;;5.23;;
13785;SDS011;47474;48.824;9.384;2024-03-22T02:20:59;6.90;;;5.17;;
13785;SDS011;47474;48.824;9.384;2024-03-22T02:23:31;5.80;;;4.73;;
13785;SDS011;47474;48.824;9.384;2024-03-22T02:25:57;6.00;;;5.10;;
13785;SDS011;47474;48.824;9.384;2024-03-22T02:28:23;5.70;;;5.10;;
13785;SDS011;47474;48.824;9.384;2024-03-22T02:30:49;7.50;;;5.80;;
13785;SDS011;47474;48.824;9.384;2024-03-22T02:33:15;6.00;;;5.07;;
13785;SDS011;47474;48.824;9.384;2024-03-22T02:35:41;6.60;;;5.70;;
13785;SDS011;47474;48.824;9.384;2024-03-22T02:38:07;6.97;;;5.83;;
13785;SDS011;47474;48.824;9.384;2024-03-22T02:40:34;7.70;;;5.40;;
13785;SDS011;47474;48.824;9.384;2024-03-22T02:43:00;6.57;;;5.07;;
13785;SDS011;47474;48.824;9.384;2024-03-22T02:45:26;7.70;;;5.83;;
13785;SDS011;47474;48.824;9.384;2024-03-22T02:47:52;8.43;;;5.90;;
13785;SDS011;47474;48.824;9.384;2024-03-22T02:50:18;7.83;;;6.43;;
13785;SDS011;47474;48.824;9.384;2024-03-22T02:52:44;7.37;;;6.00;;
13785;SDS011;47474;48.824;9.384;2024-03-22T02:55:10;9.80;;;6.27;;
13785;SDS011;47474;48.824;9.384;2024-03-22T02:57:37;7.00;;;5.43;;
13785;SDS011;47474;48.824;9.384;2024-03-22T03:00:03;7.40;;;6.00;;
13785;SDS011;47474;48.824;9.384;2024-03-22T03:02:31;8.23;;;6.40;;
13785;SDS011;47474;48.824;9.384;2024-03-22T03:04:56;8.33;;;6.87;;
13785;SDS011;47474;48.824;9.384;2024-03-22T03:07:23;7.90;;;6.13;;
13785;SDS011;47474;48.824;9.384;2024-03-22T03:09:49;9.00;;;6.47;;
13785;SDS011;47474;48.824;9.384;2024-03-22T03:12:15;7.67;;;6.03;;
13785;SDS011;47474;48.824;9.384;2024-03-22T03:14:42;8.53;;;6.70;;
13785;SDS011;47474;48.824;9.384;2024-03-22T03:17:09;6.70;;;5.77;;
13785;SDS011;47474;48.824;9.384;2024-03-22T03:19:34;6.37;;;5.77;;
13785;SDS011;47474;48.824;9.384;2024-03-22T03:22:00;6.63;;;5.50;;
13785;SDS011;47474;48.824;9.384;2024-03-22T03:24:26;7.80;;;6.27;;
13785;SDS011;47474;48.824;9.384;2024-03-22T03:26:52;9.30;;;5.60;;
13785;SDS011;47474;48.824;9.384;2024-03-22T03:29:18;7.33;;;6.30;;
13785;SDS011;47474;48.824;9.384;2024-03-22T03:31:46;6.73;;;6.03;;
13785;SDS011;47474;48.824;9.384;2024-03-22T03:34:11;10.70;;;6.60;;
13785;SDS011;47474;48.824;9.384;2024-03-22T03:36:38;8.57;;;6.87;;
13785;SDS011;47474;48.824;9.384;2024-03-22T03:39:03;9.30;;;7.50;;
13785;SDS011;47474;48.824;9.384;2024-03-22T03:41:30;8.73;;;7.33;;
13785;SDS011;47474;48.824;9.384;2024-03-22T03:43:55;10.63;;;6.67;;
13785;SDS011;47474;48.824;9.384;2024-03-22T03:46:22;8.00;;;6.50;;
13785;SDS011;47474;48.824;9.384;2024-03-22T03:48:49;9.10;;;6.63;;
13785;SDS011;47474;48.824;9.384;2024-03-22T03:51:15;9.67;;;6.83;;
13785;SDS011;47474;48.824;9.384;2024-03-22T03:53:41;7.67;;;6.87;;
13785;SDS011;47474;48.824;9.384;2024-03-22T03:56:07;9.57;;;7.23;;
13785;SDS011;47474;48.824;9.384;2024-03-22T03:58:33;9.80;;;7.73;;
13785;SDS011;47474;48.824;9.384;2024-03-22T04:01:04;9.93;;;7.40;;
13785;SDS011;47474;48.824;9.384;2024-03-22T04:03:30;12.67;;;8.53;;
13785;SDS011;47474;48.824;9.384;2024-03-22T04:05:58;9.50;;;8.50;;
13785;SDS011;47474;48.824;9.384;2024-03-22T04:08:24;9.87;;;8.80;;
13785;SDS011;47474;48.824;9.384;2024-03-22T04:10:51;9.60;;;7.73;;
13785;SDS011;47474;48.824;9.384;2024-03-22T04:13:17;9.07;;;8.10;;
13785;SDS011;47474;48.824;9.384;2024-03-22T04:15:43;8.33;;;7.47;;
13785;SDS011;47474;48.824;9.384;2024-03-22T04:18:08;10.13;;;7.87;;
13785;SDS011;47474;48.824;9.384;2024-03-22T04:20:35;10.27;;;7.43;;
13785;SDS011;47474;48.824;9.384;2024-03-22T04:23:02;10.87;;;8.37;;
13785;SDS011;47474;48.824;9.384;2024-03-22T04:25:28;9.37;;;8.07;;
13785;SDS011;47474;48.824;9.384;2024-03-22T04:27:54;8.17;;;7.13;;
13785;SDS011;47474;48.824;9.384;2024-03-22T04:30:20;9.67;;;7.53;;
13785;SDS011;47474;48.824;9.384;2024-03-22T04:32:46;8.07;;;6.87;;
13785;SDS011;47474;48.824;9.384;2024-03-22T04:35:13;8.20;;;7.30;;
13785;SDS011;47474;48.824;9.384;2024-03-22T04:37:38;8.47;;;6.73;;
13785;SDS011;47474;48.824;9.384;2024-03-22T04:40:07;8.73;;;7.03;;
13785;SDS011;47474;48.824;9.384;2024-03-22T04:42:34;7.40;;;6.33;;
13785;SDS011;47474;48.824;9.384;2024-03-22T04:45:00;8.67;;;7.30;;
13785;SDS011;47474;48.824;9.384;2024-03-22T04:47:26;6.90;;;6.17;;
13785;SDS011;47474;48.824;9.384;2024-03-22T04:49:52;7.90;;;6.00;;
13785;SDS011;47474;48.824;9.384;2024-03-22T04:52:18;12.23;;;6.40;;
13785;SDS011;47474;48.824;9.384;2024-03-22T04:54:45;7.47;;;5.50;;
13785;SDS011;47474;48.824;9.384;2024-03-22T04:57:13;8.27;;;5.63;;
13785;SDS011;47474;48.824;9.384;2024-03-22T04:59:40;10.30;;;5.80;;
13785;SDS011;47474;48.824;9.384;2024-03-22T05:02:05;9.20;;;6.53;;
13785;SDS011;47474;48.824;9.384;2024-03-22T05:04:32;7.77;;;6.33;;
13785;SDS011;47474;48.824;9.384;2024-03-22T05:06:57;7.60;;;6.40;;
13785;SDS011;47474;48.824;9.384;2024-03-22T05:09:24;7.53;;;6.17;;
13785;SDS011;47474;48.824;9.384;2024-03-22T05:11:49;8.23;;;5.93;;
13785;SDS011;47474;48.824;9.384;2024-03-22T05:14:17;7.83;;;5.57;;
13785;SDS011;47474;48.824;9.384;2024-03-22T05:16:44;8.30;;;6.23;;
13785;SDS011;47474;48.824;9.384;2024-03-22T05:19:10;7.20;;;5.90;;
13785;SDS011;47474;48.824;9.384;2024-03-22T05:21:36;9.33;;;7.20;;
13785;SDS011;47474;48.824;9.384;2024-03-22T05:24:02;7.70;;;6.80;;
13785;SDS011;47474;48.824;9.384;2024-03-22T05:26:28;7.93;;;7.00;;
13785;SDS011;47474;48.824;9.384;2024-03-22T05:28:57;8.17;;;7.37;;
13785;SDS011;47474;48.824;9.384;2024-03-22T05:31:24;12.50;;;6.97;;
13785;SDS011;47474;48.824;9.384;2024-03-22T05:33:50;9.47;;;7.37;;
13785;SDS011;47474;48.824;9.384;2024-03-22T05:36:15;10.13;;;7.43;;
13785;SDS011;47474;48.824;9.384;2024-03-22T05:38:42;10.37;;;7.70;;
13785;SDS011;47474;48.824;9.384;2024-03-22T05:41:07;8.83;;;7.23;;
13785;SDS011;47474;48.824;9.384;2024-03-22T05:43:34;7.00;;;6.10;;
13785;SDS011;47474;48.824;9.384;2024-03-22T05:45:59;8.83;;;6.67;;
13785;SDS011;47474;48.824;9.384;2024-03-22T05:48:27;8.03;;;6.77;;
13785;SDS011;47474;48.824;9.384;2024-03-22T05:50:53;7.67;;;5.93;;
13785;SDS011;47474;48.824;9.384;2024-03-22T05:53:20;7.30;;;5.97;;
13785;SDS011;47474;48.824;9.384;2024-03-22T05:55:45;8.40;;;6.43;;
13785;SDS011;47474;48.824;9.384;2024-03-22T05:58:11;7.90;;;6.70;;
13785;SDS011;47474;48.824;9.384;2024-03-22T06:00:37;8.50;;;6.80;;
13785;SDS011;47474;48.824;9.384;2024-03-22T06:03:04;7.80;;;6.90;;
13785;SDS011;47474;48.824;9.384;2024-03-22T06:05:31;9.63;;;7.63;;
13785;SDS011;47474;48.824;9.384;2024-03-22T06:07:59;8.63;;;6.67;;
13785;SDS011;47474;48.824;9.384;2024-03-22T06:10:25;7.37;;;6.67;;
13785;SDS011;47474;48.824;9.384;2024-03-22T06:12:51;7.97;;;5.80;;
13785;SDS011;47474;48.824;9.384;2024-03-22T06:15:17;6.40;;;5.80;;
13785;SDS011;47474;48.824;9.384;2024-03-22T06:17:43;6.90;;;5.90;;
13785;SDS011;47474;48.824;9.384;2024-03-22T06:20:11;7.70;;;5.93;;
13785;SDS011;47474;48.824;9.384;2024-03-22T06:22:39;7.67;;;6.73;;
13785;SDS011;47474;48.824;9.384;2024-03-22T06:25:05;7.27;;;5.97;;
13785;SDS011;47474;48.824;9.384;2024-03-22T06:27:32;7.40;;;6.70;;
13785;SDS011;47474;48.824;9.384;2024-03-22T06:29:57;7.53;;;6.40;;
13785;SDS011;47474;48.824;9.384;2024-03-22T06:32:24;9.83;;;6.73;;
13785;SDS011;47474;48.824;9.384;2024-03-22T06:34:49;11.03;;;5.93;;
13785;SDS011;47474;48.824;9.384;2024-03-22T06:37:16;6.77;;;5.87;;
13785;SDS011;47474;48.824;9.384;2024-03-22T06:39:42;7.43;;;6.07;;
13785;SDS011;47474;48.824;9.384;2024-03-22T06:42:09;10.10;;;6.90;;
13785;SDS011;47474;48.824;9.384;2024-03-22T06:44:34;8.40;;;6.17;;
13785;SDS011;47474;48.824;9.384;2024-03-22T06:47:01;9.90;;;6.77;;
13785;SDS011;47474;48.824;9.384;2024-03-22T06:49:27;13.93;;;7.30;;
13785;SDS011;47474;48.824;9.384;2024-03-22T06:51:53;7.67;;;6.87;;
13785;SDS011;47474;48.824;9.384;2024-03-22T06:54:19;7.97;;;6.47;;
13785;SDS011;47474;48.824;9.384;2024-03-22T06:56:47;7.90;;;6.93;;
13785;SDS011;47474;48.824;9.384;2024-03-22T06:59:12;12.47;;;8.50;;
13785;SDS011;47474;48.824;9.384;2024-03-22T07:01:39;7.50;;;6.37;;
13785;SDS011;47474;48.824;9.384;2024-03-22T07:04:04;11.27;;;6.67;;
13785;SDS011;47474;48.824;9.384;2024-03-22T07:06:30;10.73;;;6.93;;
13785;SDS011;47474;48.824;9.384;2024-03-22T07:08:56;10.87;;;6.83;;
13785;SDS011;47474;48.824;9.384;2024-03-22T07:11:22;9.37;;;7.20;;
13785;SDS011;47474;48.824;9.384;2024-03-22T07:13:49;9.37;;;6.73;;
13785;SDS011;47474;48.824;9.384;2024-03-22T07:16:16;9.47;;;6.73;;
13785;SDS011;47474;48.824;9.384;2024-03-22T07:18:41;8.40;;;7.00;;
13785;SDS011;47474;48.824;9.384;2024-03-22T07:21:08;7.67;;;6.67;;
13785;SDS011;47474;48.824;9.384;2024-03-22T07:23:33;9.90;;;7.70;;
13785;SDS011;47474;48.824;9.384;2024-03-22T07:26:00;7.90;;;7.10;;
13785;SDS011;47474;48.824;9.384;2024-03-22T07:28:25;9.33;;;7.60;;
13785;SDS011;47474;48.824;9.384;2024-03-22T07:30:53;9.87;;;7.63;;
13785;SDS011;47474;48.824;9.384;2024-03-22T07:33:20;8.30;;;6.57;;
13785;SDS011;47474;48.824;9.384;2024-03-22T07:35:46;8.30;;;7.07;;
13785;SDS011;47474;48.824;9.384;2024-03-22T07:38:12;7.77;;;6.77;;
13785;SDS011;47474;48.824;9.384;2024-03-22T07:40:38;9.17;;;7.33;;
13785;SDS011;47474;48.824;9.384;2024-03-22T07:43:04;8.47;;;6.90;;
13785;SDS011;47474;48.824;9.384;2024-03-22T07:45:32;8.93;;;6.40;;
13785;SDS011;47474;48.824;9.384;2024-03-22T07:47:59;8.90;;;6.77;;
13785;SDS011;47474;48.824;9.384;2024-03-22T07:50:25;7.27;;;6.40;;
13785;SDS011;47474;48.824;9.384;2024-03-22T07:52:51;7.10;;;6.40;;
13785;SDS011;47474;48.824;9.384;2024-03-22T07:55:17;9.97;;;6.40;;
13785;SDS011;47474;48.824;9.384;2024-03-22T07:57:43;7.30;;;6.37;;
13785;SDS011;47474;48.824;9.384;2024-03-22T08:00:10;9.10;;;6.87;;
13785;SDS011;47474;48.824;9.384;2024-03-22T08:02:36;9.27;;;7.03;;
13785;SDS011;47474;48.824;9.384;2024-03-22T08:05:04;7.87;;;6.73;;
13785;SDS011;47474;48.824;9.384;2024-03-22T08:07:30;6.87;;;6.17;;
13785;SDS011;47474;48.824;9.384;2024-03-22T08:09:56;8.20;;;6.27;;
13785;SDS011;47474;48.824;9.384;2024-03-22T08:12:23;8.33;;;7.13;;
13785;SDS011;47474;48.824;9.384;2024-03-22T08:14:50;7.10;;;5.70;;
13785;SDS011;47474;48.824;9.384;2024-03-22T08:17:15;7.30;;;6.60;;
13785;SDS011;47474;48.824;9.384;2024-03-22T08:19:42;7.33;;;6.70;;
13785;SDS011;47474;48.824;9.384;2024-03-22T08:22:10;7.97;;;7.20;;
13785;SDS011;47474;48.824;9.384;2024-03-22T08:24:37;6.27;;;5.43;;
13785;SDS011;47474;48.824;9.384;2024-03-22T08:27:03;8.33;;;6.33;;
13785;SDS011;47474;48.824;9.384;2024-03-22T08:29:29;6.97;;;5.80;;
13785;SDS011;47474;48.824;9.384;2024-03-22T08:31:55;7.10;;;6.07;;
13785;SDS011;47474;48.824;9.384;2024-03-22T08:34:21;7.23;;;6.53;;
13785;SDS011;47474;48.824;9.384;2024-03-22T08:36:47;8.97;;;7.47;;
13785;SDS011;47474;48.824;9.384;2024-03-22T08:39:15;10.30;;;7.07;;
13785;SDS011;47474;48.824;9.384;2024-03-22T08:41:41;7.10;;;6.37;;
13785;SDS011;47474;48.824;9.384;2024-03-22T08:44:07;7.37;;;6.63;;
13785;SDS011;47474;48.824;9.384;2024-03-22T08:46:32;9.35;;;6.93;;
13785;SDS011;47474;48.824;9.384;2024-03-22T08:48:59;9.53;;;7.27;;
13785;SDS011;47474;48.824;9.384;2024-03-22T08:51:24;7.90;;;6.50;;
13785;SDS011;47474;48.824;9.384;2024-03-22T08:53:51;8.18;;;7.32;;
13785;SDS011;47474;48.824;9.384;2024-03-22T08:56:18;7.20;;;6.05;;
13785;SDS011;47474;48.824;9.384;2024-03-22T08:58:44;10.52;;;6.93;;
13785;SDS011;47474;48.824;9.384;2024-03-22T09:01:09;9.40;;;6.13;;
13785;SDS011;47474;48.824;9.384;2024-03-22T09:03:36;7.93;;;6.93;;
13785;SDS011;47474;48.824;9.384;2024-03-22T09:06:02;7.80;;;5.95;;
13785;SDS011;47474;48.824;9.384;2024-03-22T09:08:29;7.22;;;6.22;;
13785;SDS011;47474;48.824;9.384;2024-03-22T09:10:54;5.88;;;5.22;;
13785;SDS011;47474;48.824;9.384;2024-03-22T09:13:22;6.70;;;6.00;;
13785;SDS011;47474;48.824;9.384;2024-03-22T09:15:48;8.70;;;7.05;;
13785;SDS011;47474;48.824;9.384;2024-03-22T09:18:15;7.68;;;6.10;;
13785;SDS011;47474;48.824;9.384;2024-03-22T09:20:41;6.40;;;5.75;;
13785;SDS011;47474;48.824;9.384;2024-03-22T09:23:07;7.05;;;5.55;;
13785;SDS011;47474;48.824;9.384;2024-03-22T09:25:33;7.55;;;6.25;;
13785;SDS011;47474;48.824;9.384;2024-03-22T09:27:59;8.50;;;6.47;;
13785;SDS011;47474;48.824;9.384;2024-03-22T09:30:26;7.30;;;6.43;;
13785;SDS011;47474;48.824;9.384;2024-03-22T09:32:54;6.38;;;5.60;;
13785;SDS011;47474;48.824;9.384;2024-03-22T09:35:19;8.25;;;7.35;;
13785;SDS011;47474;48.824;9.384;2024-03-22T09:37:46;9.18;;;7.50;;
13785;SDS011;47474;48.824;9.384;2024-03-22T09:40:12;7.50;;;6.38;;
13785;SDS011;47474;48.824;9.384;2024-03-22T09:42:38;9.70;;;7.25;;
13785;SDS011;47474;48.824;9.384;2024-03-22T09:45:04;10.55;;;6.38;;
13785;SDS011;47474;48.824;9.384;2024-03-22T09:47:36;7.68;;;6.80;;
13785;SDS011;47474;48.824;9.384;2024-03-22T09:50:02;7.07;;;6.13;;
13785;SDS011;47474;48.824;9.384;2024-03-22T09:52:29;7.47;;;5.82;;
13785;SDS011;47474;48.824;9.384;2024-03-22T09:54:56;5.80;;;5.00;;
13785;SDS011;47474;48.824;9.384;2024-03-22T09:57:22;5.88;;;5.38;;
13785;SDS011;47474;48.824;9.384;2024-03-22T09:59:49;6.60;;;5.72;;
13785;SDS011;47474;48.824;9.384;2024-03-22T10:02:15;6.15;;;4.68;;
13785;SDS011;47474;48.824;9.384;2024-03-22T10:04:42;7.70;;;5.65;;
13785;SDS011;47474;48.824;9.384;2024-03-22T10:07:09;7.78;;;6.22;;
13785;SDS011;47474;48.824;9.384;2024-03-22T10:09:35;6.38;;;5.78;;
13785;SDS011;47474;48.824;9.384;2024-03-22T10:12:02;7.43;;;5.60;;
13785;SDS011;47474;48.824;9.384;2024-03-22T10:14:28;5.70;;;4.63;;
13785;SDS011;47474;48.824;9.384;2024-03-22T10:16:56;7.20;;;5.05;;
13785;SDS011;47474;48.824;9.384;2024-03-22T10:19:21;5.05;;;4.47;;
13785;SDS011;47474;48.824;9.384;2024-03-22T10:21:58;6.55;;;4.63;;
13785;SDS011;47474;48.824;9.384;2024-03-22T10:24:24;5.25;;;4.60;;
13785;SDS011;47474;48.824;9.384;2024-03-22T10:26:51;6.15;;;4.88;;
13785;SDS011;47474;48.824;9.384;2024-03-22T10:29:16;5.70;;;5.00;;
13785;SDS011;47474;48.824;9.384;2024-03-22T10:31:43;9.02;;;5.50;;
13785;SDS011;47474;48.824;9.384;2024-03-22T10:34:09;4.82;;;4.20;;
13785;SDS011;47474;48.824;9.384;2024-03-22T10:36:35;5.18;;;4.20;;
13785;SDS011;47474;48.824;9.384;2024-03-22T10:39:02;6.28;;;4.78;;
13785;SDS011;47474;48.824;9.384;2024-03-22T10:41:30;6.85;;;4.78;;
13785;SDS011;47474;48.824;9.384;2024-03-22T10:43:55;5.80;;;5.28;;
13785;SDS011;47474;48.824;9.384;2024-03-22T10:46:23;7.82;;;5.35;;
13785;SDS011;47474;48.824;9.384;2024-03-22T10:48:54;4.97;;;4.45;;
13785;SDS011;47474;48.824;9.384;2024-03-22T10:51:21;5.10;;;3.70;;
13785;SDS011;47474;48.824;9.384;2024-03-22T10:53:47;6.25;;;5.10;;
13785;SDS011;47474;48.824;9.384;2024-03-22T10:56:15;7.53;;;5.07;;
13785;SDS011;47474;48.824;9.384;2024-03-22T10:58:41;6.40;;;4.82;;
13785;SDS011;47474;48.824;9.384;2024-03-22T11:01:21;5.88;;;4.85;;
13785;SDS011;47474;48.824;9.384;2024-03-22T11:03:47;7.25;;;4.75;;
13785;SDS011;47474;48.824;9.384;2024-03-22T11:06:13;5.93;;;5.32;;
13785;SDS011;47474;48.824;9.384;2024-03-22T11:08:43;4.90;;;4.35;;
13785;SDS011;47474;48.824;9.384;2024-03-22T11:11:11;6.00;;;4.43;;
13785;SDS011;47474;48.824;9.384;2024-03-22T11:13:38;7.20;;;4.63;;
13785;SDS011;47474;48.824;9.384;2024-03-22T11:16:05;5.32;;;4.35;;
13785;SDS011;47474;48.824;9.384;2024-03-22T11:18:32;6.28;;;4.95;;
13785;SDS011;47474;48.824;9.384;2024-03-22T11:20:59;5.28;;;4.10;;
13785;SDS011;47474;48.824;9.384;2024-03-22T11:23:24;6.32;;;5.13;;
13785;SDS011;47474;48.824;9.384;2024-03-22T11:25:51;5.35;;;4.43;;
13785;SDS011;47474;48.824;9.384;2024-03-22T11:28:16;4.72;;;3.80;;
13785;SDS011;47474;48.824;9.384;2024-03-22T11:30:45;4.30;;;3.90;;
13785;SDS011;47474;48.824;9.384;2024-03-22T11:33:10;6.20;;;4.45;;
13785;SDS011;47474;48.824;9.384;2024-03-22T11:35:37;4.05;;;3.50;;
13785;SDS011;47474;48.824;9.384;2024-03-22T11:38:03;4.60;;;4.20;;
13785;SDS011;47474;48.824;9.384;2024-03-22T11:40:30;5.38;;;3.80;;
13785;SDS011;47474;48.824;9.384;2024-03-22T11:42:56;3.15;;;2.85;;
13785;SDS011;47474;48.824;9.384;2024-03-22T11:45:24;6.45;;;4.03;;
13785;SDS011;47474;48.824;9.384;2024-03-22T11:47:52;4.43;;;3.70;;
13785;SDS011;47474;48.824;9.384;2024-03-22T11:50:19;4.40;;;3.60;;
13785;SDS011;47474;48.824;9.384;2024-03-22T11:52:44;4.85;;;4.35;;
13785;SDS011;47474;48.824;9.384;2024-03-22T11:55:12;5.35;;;4.40;;
13785;SDS011;47474;48.824;9.384;2024-03-22T11:57:38;4.43;;;3.55;;
13785;SDS011;47474;48.824;9.384;2024-03-22T12:00:05;5.10;;;3.70;;
13785;SDS011;47474;48.824;9.384;2024-03-22T12:02:35;4.43;;;4.03;;
13785;SDS011;47474;48.824;9.384;2024-03-22T12:05:03;6.43;;;4.10;;
13785;SDS011;47474;48.824;9.384;2024-03-22T12:07:29;4.55;;;3.92;;
13785;SDS011;47474;48.824;9.384;2024-03-22T12:09:56;4.18;;;3.78;;
13785;SDS011;47474;48.824;9.384;2024-03-22T12:12:22;3.90;;;3.50;;
13785;SDS011;47474;48.824;9.384;2024-03-22T12:14:48;4.78;;;2.90;;
13785;SDS011;47474;48.824;9.384;2024-03-22T12:17:16;3.75;;;3.45;;
13785;SDS011;47474;48.824;9.384;2024-03-22T12:19:42;5.28;;;3.85;;
13785;SDS011;47474;48.824;9.384;2024-03-22T12:22:09;3.78;;;3.42;;
13785;SDS011;47474;48.824;9.384;2024-03-22T12:24:36;4.32;;;3.05;;
13785;SDS011;47474;48.824;9.384;2024-03-22T12:27:01;4.40;;;3.75;;
13785;SDS011;47474;48.824;9.384;2024-03-22T12:29:28;5.35;;;3.95;;
13785;SDS011;47474;48.824;9.384;2024-03-22T12:31:53;4.65;;;3.63;;
13785;SDS011;47474;48.824;9.384;2024-03-22T12:34:20;4.85;;;3.70;;
13785;SDS011;47474;48.824;9.384;2024-03-22T12:36:45;5.50;;;3.53;;
13785;SDS011;47474;48.824;9.384;2024-03-22T12:39:13;6.32;;;3.65;;
13785;SDS011;47474;48.824;9.384;2024-03-22T12:41:39;5.63;;;3.95;;
13785;SDS011;47474;48.824;9.384;2024-03-22T12:44:05;4.05;;;3.30;;
13785;SDS011;47474;48.824;9.384;2024-03-22T12:46:31;2.95;;;2.65;;
13785;SDS011;47474;48.824;9.384;2024-03-22T12:48:57;7.00;;;3.70;;
13785;SDS011;47474;48.824;9.384;2024-03-22T12:51:23;5.85;;;3.20;;
13785;SDS011;47474;48.824;9.384;2024-03-22T12:53:50;6.28;;;4.00;;
13785;SDS011;47474;48.824;9.384;2024-03-22T12:56:17;5.25;;;3.47;;
13785;SDS011;47474;48.824;9.384;2024-03-22T12:58:44;5.15;;;3.83;;
13785;SDS011;47474;48.824;9.384;2024-03-22T13:01:09;4.18;;;3.40;;
13785;SDS011;47474;48.824;9.384;2024-03-22T13:03:36;4.80;;;3.42;;
13785;SDS011;47474;48.824;9.384;2024-03-22T13:06:02;3.40;;;3.10;;
13785;SDS011;47474;48.824;9.384;2024-03-22T13:08:30;4.65;;;3.42;;
13785;SDS011;47474;48.824;9.384;2024-03-22T13:10:55;4.28;;;3.22;;
13785;SDS011;47474;48.824;9.384;2024-03-22T13:13:23;5.20;;;3.40;;
13785;SDS011;47474;48.824;9.384;2024-03-22T13:15:49;4.75;;;3.25;;
13785;SDS011;47474;48.824;9.384;2024-03-22T13:18:15;3.90;;;3.05;;
13785;SDS011;47474;48.824;9.384;2024-03-22T13:20:40;5.85;;;3.60;;
13785;SDS011;47474;48.824;9.384;2024-03-22T13:23:07;3.92;;;3.58;;
13785;SDS011;47474;48.824;9.384;2024-03-22T13:25:34;4.38;;;3.97;;
13785;SDS011;47474;48.824;9.384;2024-03-22T13:28:01;3.80;;;3.38;;
13785;SDS011;47474;48.824;9.384;2024-03-22T13:30:29;5.65;;;3.35;;
13785;SDS011;47474;48.824;9.384;2024-03-22T13:32:55;8.30;;;4.00;;
13785;SDS011;47474;48.824;9.384;2024-03-22T13:35:21;4.35;;;3.30;;
13785;SDS011;47474;48.824;9.384;2024-03-22T13:37:48;4.75;;;3.13;;
13785;SDS011;47474;48.824;9.384;2024-03-22T13:40:13;2.90;;;2.60;;
13785;SDS011;47474;48.824;9.384;2024-03-22T13:42:40;6.28;;;2.90;;
13785;SDS011;47474;48.824;9.384;2024-03-22T13:45:06;6.63;;;3.58;;
13785;SDS011;47474;48.824;9.384;2024-03-22T13:47:34;2.55;;;2.33;;
13785;SDS011;47474;48.824;9.384;2024-03-22T13:50:02;4.05;;;2.97;;
13785;SDS011;47474;48.824;9.384;2024-03-22T13:52:29;4.55;;;3.20;;
13785;SDS011;47474;48.824;9.384;2024-03-22T13:54:55;2.67;;;2.38;;
13785;SDS011;47474;48.824;9.384;2024-03-22T13:57:22;6.35;;;3.38;;
13785;SDS011;47474;48.824;9.384;2024-03-22T13:59:49;4.47;;;2.97;;
13785;SDS011;47474;48.824;9.384;2024-03-22T14:02:16;3.50;;;3.08;;
13785;SDS011;47474;48.824;9.384;2024-03-22T14:04:42;3.60;;;2.67;;
13785;SDS011;47474;48.824;9.384;2024-03-22T14:07:09;3.38;;;2.45;;
13785;SDS011;47474;48.824;9.384;2024-03-22T14:09:34;4.78;;;3.17;;
13785;SDS011;47474;48.824;9.384;2024-03-22T14:12:01;3.30;;;3.08;;
13785;SDS011;47474;48.824;9.384;2024-03-22T14:14:27;3.05;;;2.72;;
13785;SDS011;47474;48.824;9.384;2024-03-22T14:16:54;3.33;;;2.33;;
13785;SDS011;47474;48.824;9.384;2024-03-22T14:19:20;5.00;;;2.50;;
13785;SDS011;47474;48.824;9.384;2024-03-22T14:21:47;4.78;;;2.55;;
13785;SDS011;47474;48.824;9.384;2024-03-22T14:24:13;3.20;;;2.90;;
13785;SDS011;47474;48.824;9.384;2024-03-22T14:26:41;2.50;;;2.30;;
13785;SDS011;47474;48.824;9.384;2024-03-22T14:29:07;3.60;;;2.03;;
13785;SDS011;47474;48.824;9.384;2024-03-22T14:31:34;4.65;;;2.50;;
13785;SDS011;47474;48.824;9.384;2024-03-22T14:33:59;3.70;;;2.67;;
13785;SDS011;47474;48.824;9.384;2024-03-22T14:36:26;4.10;;;2.88;;
13785;SDS011;47474;48.824;9.384;2024-03-22T14:38:52;3.67;;;2.72;;
13785;SDS011;47474;48.824;9.384;2024-03-22T14:41:19;5.07;;;3.35;;
13785;SDS011;47474;48.824;9.384;2024-03-22T14:43:44;3.85;;;3.13;;